Terminal Aerodrome Forecast
Issued by NWS Newport/Morehead City, NC

Home | Current Version | Previous Version | Graphics & Text | Print | Product List | Glossary On
Versions: 1 2 3 4 5 6 7 8 9 10 11 12 13 14 15 16 17 18 19 20 21
000
FTUS42 KMHX 042337
TAFEWN
TAF
KEWN 042337Z 0500/0524 VRB03KT P6SM FEW250
      TEMPO 0500/0502 -SHRA BKN012
     FM050600 22003KT 3SM BR SCT008
     FM051230 26004KT P6SM SCT040=

USA.gov is the U.S. government's official web portal to all federal, state and local government web resources and services.